createdAt,value
2023-07-16T00:01:59.782Z,1.77
2023-07-16T00:06:01.652Z,1.83
2023-07-16T00:10:03.812Z,2.15
2023-07-16T00:14:06.335Z,2.67
2023-07-16T00:18:08.213Z,2.60
2023-07-16T00:22:10.145Z,2.95
2023-07-16T00:26:15.207Z,2.50
2023-07-16T00:30:17.364Z,2.50
2023-07-16T00:34:19.286Z,3.10
2023-07-16T00:38:21.406Z,2.88
2023-07-16T00:42:23.269Z,3.42
2023-07-16T00:46:26.172Z,3.88
2023-07-16T00:50:28.945Z,3.00
2023-07-16T00:54:34.002Z,3.30
2023-07-16T00:58:36.303Z,2.58
2023-07-16T01:02:38.626Z,2.90
2023-07-16T01:06:49.342Z,2.67
2023-07-16T01:10:51.442Z,3.17
2023-07-16T01:14:53.894Z,3.40
2023-07-16T01:18:55.714Z,3.65
2023-07-16T01:23:20.396Z,3.00
2023-07-16T01:27:53.290Z,2.75
2023-07-16T01:31:57.122Z,4.57
2023-07-16T01:36:00.656Z,2.92
2023-07-16T01:40:04.653Z,3.95
2023-07-16T01:44:06.574Z,3.33
2023-07-16T01:48:25.613Z,3.67
2023-07-16T01:52:28.572Z,3.67
2023-07-16T01:56:32.172Z,3.85
2023-07-16T02:00:34.090Z,3.72
2023-07-16T02:04:35.986Z,3.97
2023-07-16T02:08:37.821Z,4.50
2023-07-16T02:12:39.765Z,3.95
2023-07-16T02:16:41.841Z,3.78
2023-07-16T02:20:45.200Z,3.95
2023-07-16T02:24:47.088Z,4.07
2023-07-16T02:28:49.236Z,4.10
2023-07-16T02:32:51.287Z,4.70
2023-07-16T02:36:53.281Z,4.72
2023-07-16T02:40:55.536Z,4.13
2023-07-16T02:44:57.452Z,4.25
2023-07-16T02:48:59.439Z,3.67
2023-07-16T02:53:01.272Z,4.43
2023-07-16T02:57:03.555Z,4.43
2023-07-16T03:01:05.468Z,4.50
2023-07-16T03:05:07.524Z,4.07
2023-07-16T03:09:10.349Z,5.05
2023-07-16T03:13:12.205Z,4.35
2023-07-16T03:17:14.681Z,3.78
2023-07-16T03:21:16.707Z,3.35
2023-07-16T03:25:19.378Z,3.35
2023-07-16T03:29:21.363Z,3.55
2023-07-16T03:33:23.453Z,3.25
2023-07-16T03:37:25.473Z,3.15
2023-07-16T03:41:27.560Z,4.22
2023-07-16T03:45:29.545Z,3.28
2023-07-16T03:49:31.447Z,2.75
2023-07-16T03:53:33.318Z,3.35
2023-07-16T03:57:35.158Z,3.38
2023-07-16T04:01:37.077Z,3.35
2023-07-16T04:05:38.997Z,3.58
2023-07-16T04:09:41.950Z,3.92
2023-07-16T04:13:43.890Z,4.57
2023-07-16T04:17:45.771Z,3.92
2023-07-16T04:21:47.641Z,4.00
2023-07-16T04:25:54.333Z,4.15
2023-07-16T04:29:56.264Z,3.90
2023-07-16T04:33:58.235Z,4.75
2023-07-16T04:38:00.136Z,3.92
2023-07-16T04:42:02.022Z,4.50
2023-07-16T04:46:04.247Z,4.07
2023-07-16T04:50:07.276Z,4.35
2023-07-16T04:54:09.161Z,3.78
2023-07-16T04:58:13.041Z,3.65
2023-07-16T05:02:16.730Z,4.60
2023-07-16T05:06:18.883Z,4.30
2023-07-16T05:10:20.960Z,3.85
2023-07-16T05:14:22.828Z,4.22
2023-07-16T05:18:24.882Z,3.85
2023-07-16T05:22:26.754Z,3.72
2023-07-16T05:26:28.657Z,4.07
2023-07-16T05:30:30.486Z,3.95
2023-07-16T05:34:32.351Z,4.50
2023-07-16T05:38:34.146Z,3.45
2023-07-16T05:42:36.517Z,3.13
2023-07-16T05:46:38.493Z,3.75
2023-07-16T05:50:40.382Z,3.40
2023-07-16T05:54:45.138Z,3.70
2023-07-16T05:58:47.041Z,3.25
2023-07-16T06:02:48.868Z,3.50
2023-07-16T06:06:53.018Z,4.65
2023-07-16T06:10:55.173Z,4.15
2023-07-16T06:14:57.008Z,3.63
2023-07-16T06:18:58.928Z,4.43
2023-07-16T06:23:00.996Z,4.57
2023-07-16T06:27:03.030Z,4.25
2023-07-16T06:31:04.942Z,3.97
2023-07-16T06:35:07.104Z,4.18
2023-07-16T06:39:08.989Z,3.50
2023-07-16T06:43:10.818Z,4.85
2023-07-16T06:47:12.774Z,4.38
2023-07-16T06:51:14.689Z,3.70
2023-07-16T06:55:16.540Z,4.78
2023-07-16T06:59:18.417Z,3.90
2023-07-16T07:03:20.274Z,4.13
2023-07-16T07:07:22.219Z,4.28
2023-07-16T07:11:24.093Z,3.40
2023-07-16T07:15:25.915Z,4.22
2023-07-16T07:19:28.458Z,4.20
2023-07-16T07:23:30.456Z,4.80
2023-07-16T07:27:32.600Z,4.40
2023-07-16T07:31:34.522Z,3.92
2023-07-16T07:35:36.425Z,4.28
2023-07-16T07:39:38.510Z,4.05
2023-07-16T07:43:40.341Z,4.30
2023-07-16T07:47:42.896Z,4.85
2023-07-16T07:51:44.825Z,4.55
2023-07-16T07:55:47.224Z,4.43
2023-07-16T07:59:49.161Z,4.20
2023-07-16T08:03:51.071Z,3.90
2023-07-16T08:07:53.616Z,3.75
2023-07-16T08:11:55.578Z,3.70
2023-07-16T08:15:57.458Z,4.50
2023-07-16T08:19:59.427Z,4.80
2023-07-16T08:24:01.281Z,4.70
2023-07-16T08:28:06.395Z,4.10
2023-07-16T08:32:08.885Z,4.80
2023-07-16T08:36:11.514Z,3.38
2023-07-16T08:40:14.304Z,2.95
2023-07-16T08:44:16.765Z,4.07
2023-07-16T08:48:21.553Z,3.92
2023-07-16T08:52:24.194Z,3.25
2023-07-16T08:56:26.464Z,3.20
2023-07-16T09:00:28.662Z,3.00
2023-07-16T09:04:31.193Z,3.65
2023-07-16T09:08:33.090Z,3.60
2023-07-16T09:12:34.951Z,4.03
2023-07-16T09:16:36.789Z,3.80
2023-07-16T09:20:40.947Z,4.32
2023-07-16T09:24:48.598Z,4.30
2023-07-16T09:28:50.690Z,3.35
2023-07-16T09:32:52.823Z,4.05
2023-07-16T09:36:54.720Z,3.53
2023-07-16T09:40:57.749Z,3.58
2023-07-16T09:45:01.989Z,3.53
2023-07-16T09:49:04.026Z,2.80
2023-07-16T09:53:06.339Z,2.35
2023-07-16T09:57:10.002Z,3.50
2023-07-16T10:01:12.468Z,2.72
2023-07-16T10:05:19.160Z,3.50
2023-07-16T10:09:43.621Z,3.35
2023-07-16T10:13:51.983Z,2.70
2023-07-16T10:17:54.291Z,3.08
2023-07-16T10:21:56.148Z,3.15
2023-07-16T10:26:02.311Z,2.60
2023-07-16T10:30:07.533Z,3.13
2023-07-16T10:34:10.149Z,2.05
2023-07-16T10:38:13.937Z,2.53
2023-07-16T10:42:18.777Z,1.58
2023-07-16T10:46:21.988Z,2.15
2023-07-16T10:50:24.167Z,2.53
2023-07-16T10:54:28.871Z,2.83
2023-07-16T10:58:30.752Z,2.40
2023-07-16T11:02:32.711Z,1.58
2023-07-16T11:06:34.707Z,2.35
2023-07-16T11:10:36.589Z,1.92
2023-07-16T11:14:39.331Z,2.55
2023-07-16T11:18:43.311Z,2.35
2023-07-16T11:22:48.150Z,1.98
2023-07-16T11:26:53.671Z,2.28
2023-07-16T11:30:55.636Z,2.13
2023-07-16T11:34:58.593Z,1.75
2023-07-16T11:39:00.812Z,1.77
2023-07-16T11:43:28.688Z,2.20
2023-07-16T11:47:31.043Z,1.92
2023-07-16T11:51:32.999Z,2.60
2023-07-16T11:55:35.005Z,1.63
2023-07-16T11:59:36.915Z,2.30
2023-07-16T12:03:38.803Z,1.52
2023-07-16T12:07:40.888Z,2.63
2023-07-16T12:11:42.721Z,1.20
2023-07-16T12:15:44.675Z,1.70
2023-07-16T12:19:46.507Z,1.67
2023-07-16T12:23:48.323Z,1.63
2023-07-16T12:27:53.775Z,1.70
2023-07-16T12:31:57.735Z,1.83
2023-07-16T12:35:59.558Z,2.15
2023-07-16T12:40:03.577Z,2.50
2023-07-16T12:44:05.457Z,2.58
2023-07-16T12:48:07.496Z,1.92
2023-07-16T12:52:09.739Z,2.00
2023-07-16T12:56:11.594Z,2.10
2023-07-16T13:00:13.685Z,2.22
2023-07-16T13:04:15.514Z,1.65
2023-07-16T13:08:20.304Z,2.00
2023-07-16T13:12:22.163Z,1.63
2023-07-16T13:16:24.122Z,1.90
2023-07-16T13:20:26.126Z,2.13
2023-07-16T13:24:28.017Z,1.73
2023-07-16T13:28:29.892Z,1.70
2023-07-16T13:32:31.860Z,2.15
2023-07-16T13:36:33.849Z,2.17
2023-07-16T13:40:35.681Z,2.05
2023-07-16T13:44:37.509Z,1.85
2023-07-16T13:48:55.847Z,1.80
2023-07-16T13:52:58.246Z,2.28
2023-07-16T13:57:00.164Z,2.67
2023-07-16T14:01:02.117Z,2.30
2023-07-16T14:05:04.177Z,2.63
2023-07-16T14:09:06.607Z,2.13
2023-07-16T14:13:08.465Z,2.10
2023-07-16T14:17:10.410Z,2.30
2023-07-16T14:21:12.367Z,1.90
2023-07-16T14:25:14.264Z,3.03
2023-07-16T14:29:16.555Z,1.90
2023-07-16T14:33:25.104Z,1.95
2023-07-16T14:37:27.077Z,2.07
2023-07-16T14:41:28.970Z,2.45
2023-07-16T14:45:30.984Z,1.83
2023-07-16T14:49:33.060Z,1.73
2023-07-16T14:53:34.871Z,2.78
2023-07-16T14:57:36.989Z,2.00
2023-07-16T15:01:40.316Z,2.15
2023-07-16T15:05:42.374Z,2.10
2023-07-16T15:09:44.188Z,2.50
2023-07-16T15:13:46.101Z,2.00
2023-07-16T15:17:47.979Z,2.25
2023-07-16T15:21:49.967Z,1.70
2023-07-16T15:25:51.928Z,3.00
2023-07-16T15:29:53.934Z,2.30
2023-07-16T15:33:56.570Z,2.58
2023-07-16T15:38:00.660Z,2.10
2023-07-16T15:42:02.859Z,2.22
2023-07-16T15:46:04.834Z,2.42
2023-07-16T15:50:07.084Z,2.50
2023-07-16T15:54:09.123Z,1.83
2023-07-16T15:58:10.970Z,2.30
2023-07-16T16:02:12.822Z,2.30
2023-07-16T16:06:14.939Z,2.10
2023-07-16T16:10:17.832Z,1.75
2023-07-16T16:14:19.697Z,2.10
2023-07-16T16:18:22.009Z,2.20
2023-07-16T16:22:23.972Z,2.13
2023-07-16T16:26:25.829Z,1.88
2023-07-16T16:30:27.798Z,1.88
2023-07-16T16:34:29.964Z,1.60
2023-07-16T16:38:31.821Z,1.45
2023-07-16T16:42:33.835Z,1.13
2023-07-16T16:46:35.870Z,1.20
2023-07-16T16:50:38.545Z,1.30
2023-07-16T16:54:40.755Z,1.38
2023-07-16T16:58:42.637Z,1.35
2023-07-16T17:02:44.757Z,1.58
2023-07-16T17:06:46.665Z,1.50
2023-07-16T17:10:48.575Z,1.92
2023-07-16T17:14:50.525Z,2.60
2023-07-16T17:18:52.662Z,2.53
2023-07-16T17:22:54.510Z,2.47
2023-07-16T17:26:56.511Z,1.88
2023-07-16T17:31:00.623Z,2.42
2023-07-16T17:35:02.835Z,1.70
2023-07-16T17:39:04.744Z,1.70
2023-07-16T17:43:06.640Z,1.75
2023-07-16T17:47:08.703Z,1.90
2023-07-16T17:51:10.700Z,2.17
2023-07-16T17:55:12.587Z,2.22
2023-07-16T17:59:14.753Z,2.30
2023-07-16T18:03:16.921Z,2.17
2023-07-16T18:07:22.824Z,1.90
2023-07-16T18:11:24.938Z,2.10
2023-07-16T18:15:26.852Z,2.75
2023-07-16T18:19:29.339Z,1.80
2023-07-16T18:23:31.697Z,1.63
2023-07-16T18:27:34.651Z,2.50
2023-07-16T18:31:36.602Z,1.80
2023-07-16T18:35:38.625Z,2.03
2023-07-16T18:39:40.538Z,1.58
2023-07-16T18:43:43.403Z,2.40
2023-07-16T18:47:45.345Z,1.50
2023-07-16T18:51:49.204Z,1.48
2023-07-16T18:55:51.039Z,1.88
2023-07-16T18:59:53.299Z,1.70
2023-07-16T19:03:55.663Z,2.55
2023-07-16T19:07:58.088Z,1.88
2023-07-16T19:11:59.945Z,2.90
2023-07-16T19:16:01.915Z,1.80
2023-07-16T19:20:05.551Z,2.28
2023-07-16T19:24:07.430Z,2.30
2023-07-16T19:28:09.739Z,1.55
2023-07-16T19:32:11.582Z,1.88
2023-07-16T19:36:14.972Z,1.85
2023-07-16T19:40:17.130Z,1.50
2023-07-16T19:44:18.920Z,1.90
2023-07-16T19:48:20.791Z,1.60
2023-07-16T19:52:22.603Z,2.08
2023-07-16T19:56:24.618Z,2.35
2023-07-16T20:00:28.362Z,2.03
2023-07-16T20:04:30.451Z,1.52
2023-07-16T20:08:32.381Z,1.90
2023-07-16T20:12:36.277Z,1.75
2023-07-16T20:16:40.519Z,1.75
2023-07-16T20:20:43.909Z,2.53
2023-07-16T20:24:45.721Z,2.15
2023-07-16T20:28:47.702Z,2.20
2023-07-16T20:32:49.599Z,1.70
2023-07-16T20:36:51.545Z,1.83
2023-07-16T20:40:53.404Z,2.47
2023-07-16T20:45:19.196Z,1.90
2023-07-16T20:49:21.091Z,2.10
2023-07-16T20:53:23.040Z,1.98
2023-07-16T20:57:24.865Z,2.05
2023-07-16T21:01:26.901Z,2.10
2023-07-16T21:05:29.660Z,2.10
2023-07-16T21:09:31.537Z,1.83
2023-07-16T21:13:33.492Z,2.30
2023-07-16T21:17:35.396Z,1.75
2023-07-16T21:21:37.291Z,2.08
2023-07-16T21:25:39.554Z,1.80
2023-07-16T21:29:41.380Z,1.90
2023-07-16T21:33:43.249Z,1.85
2023-07-16T21:37:45.240Z,2.33
2023-07-16T21:41:47.317Z,1.80
2023-07-16T21:45:49.219Z,1.77
2023-07-16T21:49:52.001Z,1.80
2023-07-16T21:53:53.837Z,1.83
2023-07-16T21:57:55.724Z,1.55
2023-07-16T22:01:58.112Z,1.80
2023-07-16T22:05:59.963Z,1.27
2023-07-16T22:10:01.838Z,1.60
2023-07-16T22:14:07.645Z,1.33
2023-07-16T22:18:09.627Z,1.30
2023-07-16T22:22:11.581Z,1.58
2023-07-16T22:26:14.029Z,1.77
2023-07-16T22:30:16.320Z,1.50
2023-07-16T22:34:18.242Z,1.58
2023-07-16T22:38:20.142Z,1.77
2023-07-16T22:42:22.425Z,2.00
2023-07-16T22:46:24.345Z,1.83
2023-07-16T22:50:26.258Z,2.45
2023-07-16T22:54:28.144Z,1.88
2023-07-16T22:58:30.012Z,1.60
2023-07-16T23:02:31.958Z,1.75
2023-07-16T23:06:34.033Z,1.85
2023-07-16T23:10:35.907Z,1.88
2023-07-16T23:14:41.503Z,2.13
2023-07-16T23:18:43.344Z,1.85
2023-07-16T23:22:45.257Z,2.00
2023-07-16T23:26:47.108Z,2.75
2023-07-16T23:30:49.041Z,1.70
2023-07-16T23:34:51.184Z,1.85
2023-07-16T23:38:53.016Z,1.63
2023-07-16T23:42:54.912Z,1.95
2023-07-16T23:46:57.983Z,1.80
2023-07-16T23:50:59.991Z,1.70
2023-07-16T23:55:04.366Z,1.95
2023-07-16T23:59:06.211Z,1.98
